Almhorst, Germany

6:36 AM CEST on October 22, 2017 (GMT +0200)
Binsenpfad | | Change Station

Elev 164 ft 52.39 °N, 9.59 °E | Updated 16 minutes ago

Clear
Clear
50.4 °F
Feels Like 50.4 °F
N
0.6
Wind Variable Wind from SW
Gusts 1.9 mph

Today
High -- | Low -- °F
--% Chance of Precip.
Yesterday
High -- | Low -- °F
Precip. -- in
Pressure 29.83 in
Visibility -9999.0 miles
Clouds
Dew Point 47 °F
Humidity 89%
Rainfall 0.00 in
Snow Depth Not available.
7:59 AM 6:11 PM
Waxing Crescent, 6% visible
METAR EDDV 220420Z 16010KT CAVOK 10/07 Q1010 NOSIG
Pressure 29.83 in
Visibility -9999.0 miles
Clouds
Dew Point 47 °F
Humidity 89%
Rainfall 0.00 in
Snow Depth Not available.
7:59 AM 6:11 PM
Waxing Crescent, 6% visible
METAR EDDV 220420Z 16010KT CAVOK 10/07 Q1010 NOSIG

Get Severe Weather Alerts

Thanks for signing up!

Be on the lookout for a verification email in your inbox.

You'll start receiving the daily forecast at 6 AM.

×

10-Day Weather Forecast

×

Almanac

Astronomy

Oct. 22, 2017 Rise Set
Actual Time
Civil Twilight
Nautical Twilight
Astronomical Twilight
Moon
Length of Visible Light
Length of Day
Tomorrow will be .
, % of the Moon is Illuminated

Today's Extremes

Country Highs Country Lows

Community

WunderPhotos

Category 6

Welcome to Category 6. This is the collective home for Weather Underground's featured writeups by Dr. Jeff Masters (right), Bob Henson (left), Chris Burt, and other regular contributors.

Nearby

Air Quality

  Air Quality AQ Index Pollutant
Not available.

Snow Depth

Station Depth Elevation

Earthquake Activity

City Distance Mag. Time & Date
Minimum magnitude displayed is 2.5.

Coastal Water Temperatures

Place Temperature

Stations

Nearby Weather Stations

Station Location Temp. Windchill Dew Point Humidity Wind Precip. Elev Updated Type